| time (UTC) | temp F | wind direction | speed MPH | gust MPH | rain 1hr in | rain 24hr in | rain mn in | humidity % | barometer mb |
| 20260502202550 | 65 | 346 | 6.0 | 9.0 | 0.00 | 0.00 | 0.00 | 81 | 1014.0 |
| 20260502201548 | 64 | 234 | 5.0 | 8.0 | 0.00 | 0.00 | 0.00 | 82 | 1014.0 |
| 20260502200543 | 64 | 298 | 4.0 | 7.0 | 0.00 | 0.00 | 0.00 | 84 | 1014.0 |
| 20260502195539 | 63 | 287 | 4.0 | 9.0 | 0.00 | 0.00 | 0.00 | 84 | 1014.1 |
| 20260502194544 | 63 | 65 | 5.0 | 9.0 | 0.00 | 0.00 | 0.00 | 85 | 1014.2 |
| 20260502193610 | 63 | 242 | 5.0 | 9.0 | 0.00 | 0.00 | 0.00 | 85 | 1014.2 |
| 20260502192621 | 62 | 258 | 5.0 | 9.0 | 0.00 | 0.00 | 0.00 | 86 | 1014.4 |
| 20260502191620 | 62 | 258 | 4.0 | 8.0 | 0.00 | 0.00 | 0.00 | 85 | 1014.6 |
| 20260502190606 | 62 | 283 | 4.0 | 8.0 | 0.00 | 0.00 | 0.00 | 86 | 1014.5 |
| 20260502183308 | 62 | 263 | 3.0 | 6.0 | 0.00 | 0.00 | 0.00 | 87 | 1015.0 |
| 20260502182239 | 62 | 279 | 3.0 | 6.0 | 0.00 | 0.00 | 0.00 | 87 | 1015.0 |
| 20260502181206 | 61 | 352 | 3.0 | 6.0 | 0.00 | 0.00 | 0.00 | 87 | 1015.0 |
| 20260502180214 | 62 | 301 | 1.0 | 4.0 | 0.00 | 0.00 | 0.00 | 87 | 1014.9 |
| 20260502170138 | 60 | 300 | 0.0 | 0.0 | 0.00 | 0.00 | 0.00 | 90 | 1015.2 |
| 20260502161858 | 60 | 278 | 2.0 | 4.0 | 0.00 | 0.00 | 0.00 | 90 | 1015.3 |
| 20260502160919 | 60 | 279 | 1.0 | 3.0 | 0.00 | 0.00 | 0.00 | 90 | 1015.3 |
| 20260502151815 | 60 | 234 | 0.0 | 3.0 | 0.00 | 0.00 | 0.00 | 91 | 1015.2 |
| 20260502150828 | 60 | 288 | 0.0 | 0.0 | 0.00 | 0.00 | 0.00 | 91 | 1015.1 |
| 20260502130508 | 59 | 348 | 1.0 | 4.0 | 0.00 | 0.00 | 0.00 | 91 | 1014.4 |
| 20260502122202 | 59 | 253 | 4.0 | 7.0 | 0.00 | 0.00 | 0.00 | 91 | 1014.2 |
| 20260502121220 | 59 | 262 | 4.0 | 7.0 | 0.00 | 0.00 | 0.00 | 91 | 1014.2 |
| 20260502120233 | 59 | 298 | 3.0 | 6.0 | 0.00 | 0.00 | 0.00 | 91 | 1014.1 |
| 20260502115221 | 59 | 253 | 2.0 | 5.0 | 0.00 | 0.00 | 0.00 | 91 | 1014.1 |
| 20260502114239 | 59 | 259 | 2.0 | 5.0 | 0.00 | 0.00 | 0.00 | 91 | 1014.1 |
| 20260502113258 | 59 | 264 | 1.0 | 4.0 | 0.00 | 0.00 | 0.00 | 91 | 1014.0 |
| 20260502112311 | 59 | 152 | 1.0 | 3.0 | 0.00 | 0.00 | 0.00 | 91 | 1013.9 |
| 20260502111326 | 59 | 271 | 2.0 | 0.0 | 0.00 | 0.00 | 0.00 | 91 | 1013.9 |
| 20260502105225 | 59 | 285 | 2.0 | 4.0 | 0.00 | 0.00 | 0.00 | 91 | 1013.8 |
| 20260502103017 | 59 | 155 | 0.0 | 0.0 | 0.00 | 0.00 | 0.00 | 91 | 1013.7 |
| 20260502102031 | 59 | 262 | 0.0 | 2.0 | 0.00 | 0.00 | 0.00 | 91 | 1013.6 |
| 20260502101015 | 59 | 241 | 0.0 | 0.0 | 0.00 | 0.00 | 0.00 | 91 | 1013.7 |
| 20260502090845 | 59 | 153 | 1.0 | 4.0 | 0.00 | 0.00 | 0.00 | 91 | 1014.0 |
| 20260502070705 | 59 | 359 | 2.0 | 5.0 | 0.00 | 0.00 | 0.00 | 90 | 1014.7 |
| 20260502065654 | 59 | 266 | 0.0 | 3.0 | 0.00 | 0.00 | 0.00 | 90 | 1014.6 |
| 20260502064632 | 59 | 356 | 0.0 | 1.0 | 0.00 | 0.00 | 0.00 | 90 | 1014.6 |
| 20260502063651 | 59 | 120 | 0.0 | 6.0 | 0.00 | 0.00 | 0.00 | 90 | 1014.4 |
| 20260502062641 | 59 | 48 | 1.0 | 6.0 | 0.00 | 0.00 | 0.00 | 90 | 1014.6 |
| 20260502061622 | 59 | 154 | 1.0 | 5.0 | 0.00 | 0.00 | 0.00 | 90 | 1014.3 |
| 20260502060642 | 59 | 199 | 0.0 | 2.0 | 0.00 | 0.00 | 0.00 | 89 | 1014.4 |
| 20260502055647 | 59 | 236 | 2.0 | 6.0 | 0.00 | 0.00 | 0.00 | 89 | 1014.3 |
| 20260502054653 | 59 | 234 | 3.0 | 6.0 | 0.00 | 0.00 | 0.00 | 89 | 1014.3 |
| 20260502052518 | 59 | 340 | 3.0 | 6.0 | 0.00 | 0.00 | 0.00 | 89 | 1014.4 |
| 20260502051506 | 59 | 330 | 3.0 | 9.0 | 0.00 | 0.00 | 0.00 | 89 | 1014.4 |
| 20260502050505 | 59 | 258 | 5.0 | 9.0 | 0.00 | 0.00 | 0.00 | 89 | 1014.3 |
| 20260502044338 | 60 | 234 | 5.0 | 8.0 | 0.00 | 0.00 | 0.00 | 89 | 1014.3 |
| 20260502043316 | 60 | 204 | 6.0 | 9.0 | 0.00 | 0.00 | 0.00 | 89 | 1014.0 |
| 20260502042243 | 60 | 50 | 6.0 | 10.0 | 0.00 | 0.00 | 0.00 | 89 | 1014.1 |
| 20260502041307 | 60 | 235 | 7.0 | 11.0 | 0.00 | 0.00 | 0.00 | 90 | 1014.0 |
| 20260502040234 | 60 | 253 | 8.0 | 12.0 | 0.00 | 0.00 | 0.00 | 89 | 1013.9 |
| 20260502035235 | 60 | 273 | 8.0 | 13.0 | 0.00 | 0.00 | 0.00 | 89 | 1013.8 |
| 20260502034222 | 60 | 259 | 8.0 | 13.0 | 0.00 | 0.00 | 0.00 | 90 | 1013.5 |
| 20260502033246 | 60 | 250 | 8.0 | 13.0 | 0.00 | 0.00 | 0.00 | 90 | 1013.3 |
| 20260502031113 | 60 | 200 | 9.0 | 14.0 | 0.00 | 0.00 | 0.00 | 89 | 1013.0 |
| 20260502030057 | 60 | 215 | 9.0 | 14.0 | 0.00 | 0.00 | 0.00 | 89 | 1013.0 |
| 20260502023943 | 61 | 243 | 9.0 | 15.0 | 0.00 | 0.00 | 0.00 | 88 | 1012.8 |
| 20260502022952 | 61 | 262 | 10.0 | 15.0 | 0.00 | 0.00 | 0.00 | 89 | 1012.8 |
| 20260502021945 | 61 | 288 | 11.0 | 16.0 | 0.00 | 0.00 | 0.00 | 88 | 1012.8 |
| 20260502020924 | 62 | 287 | 10.0 | 16.0 | 0.00 | 0.00 | 0.00 | 87 | 1012.8 |
| 20260502015932 | 62 | 267 | 10.0 | 15.0 | 0.00 | 0.00 | 0.00 | 87 | 1012.7 |
| 20260502014912 | 62 | 55 | 11.0 | 15.0 | 0.00 | 0.00 | 0.00 | 87 | 1012.6 |
| 20260502013909 | 63 | 283 | 10.0 | 16.0 | 0.00 | 0.00 | 0.00 | 86 | 1012.6 |
| 20260502012915 | 63 | 278 | 10.0 | 16.0 | 0.00 | 0.00 | 0.00 | 85 | 1012.6 |
| 20260502011915 | 63 | 252 | 10.0 | 15.0 | 0.00 | 0.00 | 0.00 | 85 | 1012.6 |
| 20260502010914 | 64 | 255 | 8.0 | 16.0 | 0.00 | 0.00 | 0.00 | 84 | 1012.5 |
| 20260502005900 | 64 | 230 | 10.0 | 16.0 | 0.00 | 0.00 | 0.00 | 84 | 1012.5 |
| 20260502004834 | 64 | 222 | 10.0 | 14.0 | 0.00 | 0.00 | 0.00 | 82 | 1012.6 |
| 20260502003827 | 64 | 257 | 9.0 | 15.0 | 0.00 | 0.00 | 0.00 | 82 | 1012.7 |
| 20260502002818 | 65 | 253 | 9.0 | 15.0 | 0.00 | 0.00 | 0.00 | 82 | 1012.5 |
| 20260502001837 | 64 | 354 | 9.0 | 15.0 | 0.00 | 0.00 | 0.00 | 83 | 1012.7 |
| 20260502000845 | 65 | 248 | 9.0 | 14.0 | 0.00 | 0.00 | 0.00 | 83 | 1012.7 |
| 20260501235909 | 65 | 292 | 8.0 | 14.0 | 0.00 | 0.00 | 0.00 | 82 | 1012.7 |
| 20260501234933 | 65 | 341 | 9.0 | 14.0 | 0.00 | 0.00 | 0.00 | 82 | 1012.6 |
| 20260501233936 | 65 | 259 | 9.0 | 14.0 | 0.00 | 0.00 | 0.00 | 82 | 1012.8 |
| 20260501232909 | 66 | 243 | 9.0 | 14.0 | 0.00 | 0.00 | 0.00 | 82 | 1012.9 |
| 20260501231921 | 66 | 223 | 9.0 | 13.0 | 0.00 | 0.00 | 0.00 | 80 | 1012.9 |
| 20260501230917 | 67 | 253 | 8.0 | 12.0 | 0.00 | 0.00 | 0.00 | 77 | 1012.7 |
| 20260501225933 | 68 | 186 | 8.0 | 12.0 | 0.00 | 0.00 | 0.00 | 76 | 1012.9 |
| 20260501224931 | 68 | 281 | 8.0 | 11.0 | 0.00 | 0.00 | 0.00 | 75 | 1013.0 |
| 20260501223946 | 68 | 226 | 7.0 | 11.0 | 0.00 | 0.00 | 0.00 | 75 | 1013.1 |
| 20260501222954 | 68 | 259 | 6.0 | 9.0 | 0.00 | 0.00 | 0.00 | 75 | 1013.3 |
| 20260501222014 | 68 | 276 | 7.0 | 10.0 | 0.00 | 0.00 | 0.00 | 76 | 1013.4 |
| 20260501221012 | 68 | 238 | 7.0 | 10.0 | 0.00 | 0.00 | 0.00 | 75 | 1013.6 |
| 20260501220002 | 68 | 224 | 8.0 | 11.0 | 0.00 | 0.00 | 0.00 | 75 | 1013.6 |
| 20260501214943 | 68 | 257 | 8.0 | 11.0 | 0.00 | 0.00 | 0.00 | 74 | 1013.7 |
| 20260501214003 | 68 | 108 | 8.0 | 13.0 | 0.00 | 0.00 | 0.00 | 73 | 1013.8 |
| 20260501212939 | 68 | 236 | 8.0 | 13.0 | 0.00 | 0.00 | 0.00 | 74 | 1014.0 |
| 20260501211912 | 68 | 357 | 8.0 | 12.0 | 0.00 | 0.00 | 0.00 | 73 | 1014.1 |
| 20260501210903 | 68 | 44 | 8.0 | 12.0 | 0.00 | 0.00 | 0.00 | 74 | 1014.1 |
| 20260501205850 | 68 | 320 | 8.0 | 12.0 | 0.00 | 0.00 | 0.00 | 74 | 1014.2 |
| 20260501204902 | 68 | 214 | 8.0 | 11.0 | 0.00 | 0.00 | 0.00 | 74 | 1014.2 |